This is the latest recevied weather packets stored in our database for station/object HA9OZD-19. If no packets are shown the sender has not sent any weather packets the latest 10 day(s).
| Time | Temp. | Humidity | Pressure | Rain* | Wind** | Luminosity | Snow |
|---|---|---|---|---|---|---|---|
| 1777856960 | 5° C | 61% | 1037.4 hPa | - | - | - | - |
| 1777853420 | 5.56° C | 60% | 1037.3 hPa | - | - | - | - |
| 1777846339 | 8.33° C | 48% | 1037.5 hPa | - | - | - | - |
| 1777842799 | 9.44° C | 48% | 1037.2 hPa | - | - | - | - |
| 1777839259 | 11.11° C | 44% | 1037.3 hPa | - | - | - | - |
| 1777835719 | 13.33° C | 35% | 1037.2 hPa | - | - | - | - |
| 1777832179 | 16.11° C | 29% | 1037 hPa | - | - | - | - |
| 1777828639 | 19.44° C | 26% | 1036.8 hPa | - | - | - | - |
| 1777825098 | 22.22° C | 24% | 1036.6 hPa | - | - | - | - |
| 1777821558 | 25° C | 21% | 1036.9 hPa | - | - | - | - |
| 1777818018 | 26.67° C | 19% | 1037.5 hPa | - | - | - | - |
| 1777814478 | 27.22° C | 19% | 1038.1 hPa | - | - | - | - |
| 1777807398 | 27.22° C | 18% | 1039.4 hPa | - | - | - | - |
| 1777803857 | 25.56° C | 20% | 1040.1 hPa | - | - | - | - |
| 1777802420 | 25.56° C | 20% | 1040.2 hPa | - | - | - | - |
| 1777798880 | 24.44° C | 21% | 1040.8 hPa | - | - | - | - |
| 1777791800 | 19.44° C | 39% | 1041 hPa | - | - | - | - |
| 1777788260 | 13.33° C | 58% | 1041 hPa | - | - | - | - |
| 1777784720 | 8.89° C | 71% | 1041 hPa | - | - | - | - |
| 1777781180 | 3.89° C | 66% | 1041 hPa | - | - | - | - |
| 1777777639 | 3.89° C | 63% | 1040.5 hPa | - | - | - | - |
| 1777774099 | 4.44° C | 61% | 1040.5 hPa | - | - | - | - |
| 1777770559 | 6.11° C | 55% | 1040.2 hPa | - | - | - | - |
| 1777763479 | 10.56° C | 46% | 1040 hPa | - | - | - | - |
| 1777759939 | 10° C | 48% | 1040.2 hPa | - | - | - | - |
* Rain since midnight (hover to see other rain measurements)
** Current wind speed in m/s (hover to see current wind gust speed)